Pagina principale
METAR-TAF:

METAR-TAF

Aeroporti :

Wonderboom Airport

Pretoria, Sudafrica

latitudine: 25-39S, longitudine: 028-13E, altezza: 1248 m

METAR: mancante

Ora: 20:58 (18:58 UTC)

Previsione

Il bollettino è stato emesso 12 ore e 58 minuti fa, alle 06:00 UTC
Previsione valida dal 16 alle 07 UTC al 16 alle 18 UTC
Vento 3 kt da direzioni variabili
Visibilità 10 km o più
nessuna nube inferiore a 1500 m e nessun cumulonembo

TAF: FAWB 160600Z 1607/1618 VRB03KT CAVOK TX31/1613Z TN27/1618Z

Osservazioni e previsioni meteorologiche di più di 4000 aeroporti (messaggi METAR e TAF).

Le stazioni disponibili sono rappresentate dai dischi gialli e rossi sulla carta.

Puntare il mouse per vedere il nome della stazione.

Clicca sopra per visualizzare le osservazioni e previsioni meteorologiche.

Per cambiare la mappa : fare clic sui pulsanti verdi con una croce nera per ingrandire, il pulsante verde con un trattino per diminuire, o sulla freccia verde per le mappe adiacenti.


METAR-TAF: